Colfax, WA

7:45 AM PST on March 05, 2015 (GMT -0800)
Barclay Ridge | Change Station
CLOSE
Current Station
Personal Weather Station
Location: Pullman, WA
Elevation: 2644 ft
Nearby Weather Stations

Elev 2644 ft 46.73 °N, 117.21 °W | Updated 1 minute ago

Partly Cloudy
Partly Cloudy
32.2 °F
Feels Like 24 °F
N
10.4
Wind Variable Wind from East

Today
High -- | Low -- °F
--% Chance of Precip.
Yesterday
High -- | Low -- °F
Precip. -- in
6:21 AM 5:40 PM
Full, 100% visible
Pressure 30.37 in
Visibility 10.0 miles
Clouds Clear
Windchill 24 °F
Dew Point 19 °F
Humidity 58%
Rainfall in
Snow Depth Not available.
UV 0 out of 12
Pollen 5.20 out of 12
Air Quality Not available.
Flu Activity Not available.
METAR KPUW 051453Z AUTO 07006KT 10SM CLR M01/M09 A3029 RMK AO2 SLP282 T10061094 51006

More Conditions Fewer Conditions

Pressure 30.37 in
Visibility 10.0 miles
Clouds Clear
Windchill 24 °F
Dew Point 19 °F
Humidity 58%
Rainfall in
Snow Depth Not available.
UV 0 out of 12
Pollen 5.20 out of 12
Air Quality Not available.
Flu Activity Not available.
METAR KPUW 051453Z AUTO 07006KT 10SM CLR M01/M09 A3029 RMK AO2 SLP282 T10061094 51006

More Conditions Fewer Conditions

10-Day Weather Forecast

Almanac

Astronomy

Mar. 05, 2015 Rise Set
Actual Time
Civil Twilight
Nautical Twilight
Astronomical Twilight
Moon
Length of Visible Light
Length of Day
Tomorrow will be .
, % of the Moon is Illuminated

Today's Extremes

State Highs State Lows

Community

WunderPhotos

Upload Photos

1,802,825 photos uploaded!

WunderBlogs® & News

Nearby

Air Quality

  Air Quality AQ Index Pollutant
Not available.

Snow Depth

Station Depth Elevation

Earthquake Activity

City Distance Mag. Time & Date
Minimum magnitude displayed is 2.5.

Coastal Water Temperatures

Place Temperature

Nearby Weather Stations